Falls International Airport International Falls US
ICAO: KINL
IATA: INL
Category: Medium
Scheduled Services: Yes

Elevation: 1185 ft
TransAlt. 18000 ft.

Airport Communications:
ASOS:120
MINNEAPOLIS CNTR:120.9
PRINCETON RDO:123.6
CTAF/UNICOM:122.8

KINL Zoom In..

If you have problems with the map follow the link
https://www.worldairports.se/pages/airport.php?
ICAO=KINL

Runways:

(A) RW 04 length 2999 ft width 75 ft
---- / hdg 39

(B) RW 13 length 7400 ft width 150 ft
ILS 109.10 / hdg 133

(C) RW 22 length 2999 ft width 75 ft
---- / hdg 219

(D) RW 31 length 7400 ft width 150 ft
ILS 111.95 / hdg 313

Location; KINL
Day. 19 / Time. 12.55 Zulu
* Altimeter: 30.20
* Temperature: -13° c. -8.6°f.
* Wind from: 050° Speed 05 kn.
Dewpoint: -16° c.
Visibility: 10 Statute Miles.
Clouds: Broken 1500 ft.
Clouds: Overcast 2800 ft.

KINL 191255Z AUTO 05005KT 10SM BKN015 OVC028 M13/M16 A3020 RMK AO2 SLP256 T11281156


Wind From 050°
Speed 05 kn.

 
 
jpsmedia.com for Web Design worldairports.se 2018   terms of use